sensor_id;sensor_type;location;lat;lon;timestamp;temperature;humidity
19449;DHT22;9863;49.404;8.246;2022-10-23T00:12:05;10.30;99.90
19449;DHT22;9863;49.404;8.246;2022-10-23T00:51:52;10.10;99.90
19449;DHT22;9863;49.404;8.246;2022-10-23T00:54:26;10.10;99.90
19449;DHT22;9863;49.404;8.246;2022-10-23T00:56:59;10.20;99.90
19449;DHT22;9863;49.404;8.246;2022-10-23T01:01:57;10.30;99.90
19449;DHT22;9863;49.404;8.246;2022-10-23T01:04:27;10.20;99.90
19449;DHT22;9863;49.404;8.246;2022-10-23T01:15:51;10.30;99.90
19449;DHT22;9863;49.404;8.246;2022-10-23T01:18:34;10.20;99.90
19449;DHT22;9863;49.404;8.246;2022-10-23T01:21:12;10.20;99.90
19449;DHT22;9863;49.404;8.246;2022-10-23T01:30:11;10.20;99.90
19449;DHT22;9863;49.404;8.246;2022-10-23T01:33:07;10.20;99.90
19449;DHT22;9863;49.404;8.246;2022-10-23T01:36:02;10.20;99.90
19449;DHT22;9863;49.404;8.246;2022-10-23T01:41:30;10.20;99.90
19449;DHT22;9863;49.404;8.246;2022-10-23T01:44:13;10.00;99.90
19449;DHT22;9863;49.404;8.246;2022-10-23T01:46:46;9.90;99.90
19449;DHT22;9863;49.404;8.246;2022-10-23T01:49:17;9.90;99.90
19449;DHT22;9863;49.404;8.246;2022-10-23T01:51:55;9.90;99.90
19449;DHT22;9863;49.404;8.246;2022-10-23T01:54:28;9.80;99.90
19449;DHT22;9863;49.404;8.246;2022-10-23T01:59:33;9.60;99.90
19449;DHT22;9863;49.404;8.246;2022-10-23T02:02:06;9.80;99.90
19449;DHT22;9863;49.404;8.246;2022-10-23T02:05:29;9.60;99.90
19449;DHT22;9863;49.404;8.246;2022-10-23T02:22:33;9.80;99.90
19449;DHT22;9863;49.404;8.246;2022-10-23T02:25:19;9.80;99.90
19449;DHT22;9863;49.404;8.246;2022-10-23T02:27:54;9.70;99.90
19449;DHT22;9863;49.404;8.246;2022-10-23T02:33:09;9.70;99.90
19449;DHT22;9863;49.404;8.246;2022-10-23T02:38:36;9.80;99.90
19449;DHT22;9863;49.404;8.246;2022-10-23T02:49:40;9.90;99.90
19449;DHT22;9863;49.404;8.246;2022-10-23T02:52:43;9.90;99.90
19449;DHT22;9863;49.404;8.246;2022-10-23T03:00:55;9.80;99.90
19449;DHT22;9863;49.404;8.246;2022-10-23T03:03:55;9.80;99.90
19449;DHT22;9863;49.404;8.246;2022-10-23T03:09:06;9.80;99.90
19449;DHT22;9863;49.404;8.246;2022-10-23T05:17:40;10.40;99.90
19449;DHT22;9863;49.404;8.246;2022-10-23T05:20:15;10.40;99.90
19449;DHT22;9863;49.404;8.246;2022-10-23T05:22:48;10.30;99.90
19449;DHT22;9863;49.404;8.246;2022-10-23T05:30:31;10.30;99.90
19449;DHT22;9863;49.404;8.246;2022-10-23T05:33:01;10.30;99.90
19449;DHT22;9863;49.404;8.246;2022-10-23T05:35:36;10.20;99.90
19449;DHT22;9863;49.404;8.246;2022-10-23T06:10:30;9.90;99.90
19449;DHT22;9863;49.404;8.246;2022-10-23T06:26:16;9.90;99.90
19449;DHT22;9863;49.404;8.246;2022-10-23T06:33:57;10.10;99.90
19449;DHT22;9863;49.404;8.246;2022-10-23T06:47:50;10.30;99.90
19449;DHT22;9863;49.404;8.246;2022-10-23T07:01:09;10.70;99.90
19449;DHT22;9863;49.404;8.246;2022-10-23T07:06:09;10.80;99.90
19449;DHT22;9863;49.404;8.246;2022-10-23T07:18:57;11.10;99.90
19449;DHT22;9863;49.404;8.246;2022-10-23T07:21:29;11.30;99.90
19449;DHT22;9863;49.404;8.246;2022-10-23T07:24:26;11.40;99.90
19449;DHT22;9863;49.404;8.246;2022-10-23T07:26:57;11.50;99.90
19449;DHT22;9863;49.404;8.246;2022-10-23T07:49:49;12.00;99.90
19449;DHT22;9863;49.404;8.246;2022-10-23T08:03:27;12.50;99.90
19449;DHT22;9863;49.404;8.246;2022-10-23T08:05:58;12.60;99.90
19449;DHT22;9863;49.404;8.246;2022-10-23T08:16:06;13.10;99.90
19449;DHT22;9863;49.404;8.246;2022-10-23T08:23:59;13.20;99.90
19449;DHT22;9863;49.404;8.246;2022-10-23T08:26:28;13.40;99.90
19449;DHT22;9863;49.404;8.246;2022-10-23T08:28:59;13.60;99.90
19449;DHT22;9863;49.404;8.246;2022-10-23T08:31:29;13.70;99.90
19449;DHT22;9863;49.404;8.246;2022-10-23T08:42:25;13.70;99.90
19449;DHT22;9863;49.404;8.246;2022-10-23T08:45:34;13.70;99.90
19449;DHT22;9863;49.404;8.246;2022-10-23T08:48:15;13.70;99.90
19449;DHT22;9863;49.404;8.246;2022-10-23T08:51:36;13.90;99.90
19449;DHT22;9863;49.404;8.246;2022-10-23T08:57:13;14.10;99.90
19449;DHT22;9863;49.404;8.246;2022-10-23T09:02:25;14.30;99.90
19449;DHT22;9863;49.404;8.246;2022-10-23T09:07:35;14.40;99.90
19449;DHT22;9863;49.404;8.246;2022-10-23T09:16:48;14.80;99.90
19449;DHT22;9863;49.404;8.246;2022-10-23T09:19:34;14.90;99.90
19449;DHT22;9863;49.404;8.246;2022-10-23T09:22:04;15.10;99.90
19449;DHT22;9863;49.404;8.246;2022-10-23T09:29:34;16.70;99.90
19449;DHT22;9863;49.404;8.246;2022-10-23T09:32:05;15.60;99.90
19449;DHT22;9863;49.404;8.246;2022-10-23T09:34:35;15.50;99.90
19449;DHT22;9863;49.404;8.246;2022-10-23T09:37:26;15.70;99.90
19449;DHT22;9863;49.404;8.246;2022-10-23T09:40:17;15.60;99.90
19449;DHT22;9863;49.404;8.246;2022-10-23T09:43:17;15.70;99.90
19449;DHT22;9863;49.404;8.246;2022-10-23T09:46:02;15.70;99.90
19449;DHT22;9863;49.404;8.246;2022-10-23T09:51:17;15.70;99.90
19449;DHT22;9863;49.404;8.246;2022-10-23T09:53:57;15.90;99.90
19449;DHT22;9863;49.404;8.246;2022-10-23T09:56:54;15.90;99.90
19449;DHT22;9863;49.404;8.246;2022-10-23T09:59:28;16.10;99.90
19449;DHT22;9863;49.404;8.246;2022-10-23T10:02:00;16.00;99.90
19449;DHT22;9863;49.404;8.246;2022-10-23T10:05:24;16.00;99.90
19449;DHT22;9863;49.404;8.246;2022-10-23T10:11:21;16.00;99.90
19449;DHT22;9863;49.404;8.246;2022-10-23T10:20:27;16.10;99.90
19449;DHT22;9863;49.404;8.246;2022-10-23T10:26:14;16.40;99.90
19449;DHT22;9863;49.404;8.246;2022-10-23T10:32:21;16.50;99.90
19449;DHT22;9863;49.404;8.246;2022-10-23T10:40:57;17.00;99.90
19449;DHT22;9863;49.404;8.246;2022-10-23T10:43:50;17.10;99.90
19449;DHT22;9863;49.404;8.246;2022-10-23T10:52:37;17.30;99.90
19449;DHT22;9863;49.404;8.246;2022-10-23T10:55:23;17.40;99.90
19449;DHT22;9863;49.404;8.246;2022-10-23T11:01:38;17.40;99.90
19449;DHT22;9863;49.404;8.246;2022-10-23T11:07:07;17.50;99.90
19449;DHT22;9863;49.404;8.246;2022-10-23T11:09:41;17.60;99.90
19449;DHT22;9863;49.404;8.246;2022-10-23T11:12:28;17.70;99.90
19449;DHT22;9863;49.404;8.246;2022-10-23T11:17:38;17.80;99.90
19449;DHT22;9863;49.404;8.246;2022-10-23T11:40:56;18.40;99.90
19449;DHT22;9863;49.404;8.246;2022-10-23T11:43:55;18.50;99.90
19449;DHT22;9863;49.404;8.246;2022-10-23T11:46:33;18.70;99.90
19449;DHT22;9863;49.404;8.246;2022-10-23T11:49:19;18.90;99.90
19449;DHT22;9863;49.404;8.246;2022-10-23T11:51:59;18.80;99.90
19449;DHT22;9863;49.404;8.246;2022-10-23T11:54:32;19.00;99.90
19449;DHT22;9863;49.404;8.246;2022-10-23T11:57:12;19.00;99.90
19449;DHT22;9863;49.404;8.246;2022-10-23T11:59:51;19.20;99.90
19449;DHT22;9863;49.404;8.246;2022-10-23T12:02:40;19.60;99.90
19449;DHT22;9863;49.404;8.246;2022-10-23T12:05:26;19.60;99.90
19449;DHT22;9863;49.404;8.246;2022-10-23T12:08:20;19.70;99.90
19449;DHT22;9863;49.404;8.246;2022-10-23T12:10:50;19.80;99.90
19449;DHT22;9863;49.404;8.246;2022-10-23T12:13:43;19.80;99.90
19449;DHT22;9863;49.404;8.246;2022-10-23T12:16:12;19.70;99.90
19449;DHT22;9863;49.404;8.246;2022-10-23T12:18:55;20.40;99.90
19449;DHT22;9863;49.404;8.246;2022-10-23T12:21:34;19.80;99.90
19449;DHT22;9863;49.404;8.246;2022-10-23T12:24:13;19.70;99.90
19449;DHT22;9863;49.404;8.246;2022-10-23T12:32:49;19.90;99.90
19449;DHT22;9863;49.404;8.246;2022-10-23T12:38:29;20.00;99.90
19449;DHT22;9863;49.404;8.246;2022-10-23T12:41:14;20.00;99.90
19449;DHT22;9863;49.404;8.246;2022-10-23T12:43:56;20.40;99.90
19449;DHT22;9863;49.404;8.246;2022-10-23T12:49:01;20.30;99.90
19449;DHT22;9863;49.404;8.246;2022-10-23T12:51:32;20.90;99.90
19449;DHT22;9863;49.404;8.246;2022-10-23T12:56:35;20.70;99.90
19449;DHT22;9863;49.404;8.246;2022-10-23T12:59:32;21.00;99.90
19449;DHT22;9863;49.404;8.246;2022-10-23T13:05:04;21.10;99.90
19449;DHT22;9863;49.404;8.246;2022-10-23T13:07:42;21.50;99.90
19449;DHT22;9863;49.404;8.246;2022-10-23T13:10:16;21.50;99.90
19449;DHT22;9863;49.404;8.246;2022-10-23T13:13:02;21.60;99.90
19449;DHT22;9863;49.404;8.246;2022-10-23T13:15:42;21.60;99.90
19449;DHT22;9863;49.404;8.246;2022-10-23T13:18:12;21.60;99.90
19449;DHT22;9863;49.404;8.246;2022-10-23T13:28:47;21.10;99.90
19449;DHT22;9863;49.404;8.246;2022-10-23T13:34:02;21.40;99.90
19449;DHT22;9863;49.404;8.246;2022-10-23T13:36:35;21.00;99.90
19449;DHT22;9863;49.404;8.246;2022-10-23T13:41:40;20.90;99.90
19449;DHT22;9863;49.404;8.246;2022-10-23T13:44:15;20.70;99.90
19449;DHT22;9863;49.404;8.246;2022-10-23T13:46:45;20.90;99.90
19449;DHT22;9863;49.404;8.246;2022-10-23T13:49:14;20.80;99.90
19449;DHT22;9863;49.404;8.246;2022-10-23T13:51:52;20.80;99.90
19449;DHT22;9863;49.404;8.246;2022-10-23T13:54:23;20.90;99.90
19449;DHT22;9863;49.404;8.246;2022-10-23T13:56:56;20.60;99.90
19449;DHT22;9863;49.404;8.246;2022-10-23T13:59:24;20.40;99.90
19449;DHT22;9863;49.404;8.246;2022-10-23T14:01:54;20.20;99.90
19449;DHT22;9863;49.404;8.246;2022-10-23T14:04:22;20.10;99.90
19449;DHT22;9863;49.404;8.246;2022-10-23T14:06:50;20.10;99.90
19449;DHT22;9863;49.404;8.246;2022-10-23T14:09:25;20.00;99.90
19449;DHT22;9863;49.404;8.246;2022-10-23T14:11:53;19.90;99.90
19449;DHT22;9863;49.404;8.246;2022-10-23T14:16:49;19.80;99.90
19449;DHT22;9863;49.404;8.246;2022-10-23T14:54:13;19.30;99.90
19449;DHT22;9863;49.404;8.246;2022-10-23T14:56:42;19.30;99.90
19449;DHT22;9863;49.404;8.246;2022-10-23T15:01:43;19.20;99.90
19449;DHT22;9863;49.404;8.246;2022-10-23T15:04:15;19.10;99.90
19449;DHT22;9863;49.404;8.246;2022-10-23T15:09:13;19.00;99.90
19449;DHT22;9863;49.404;8.246;2022-10-23T15:19:10;18.80;99.90
19449;DHT22;9863;49.404;8.246;2022-10-23T15:21:46;18.90;99.90
19449;DHT22;9863;49.404;8.246;2022-10-23T15:24:15;18.90;99.90
19449;DHT22;9863;49.404;8.246;2022-10-23T15:29:13;18.90;99.90
19449;DHT22;9863;49.404;8.246;2022-10-23T15:31:56;18.80;99.90
19449;DHT22;9863;49.404;8.246;2022-10-23T15:34:28;18.70;99.90
19449;DHT22;9863;49.404;8.246;2022-10-23T15:42:05;18.60;99.90
19449;DHT22;9863;49.404;8.246;2022-10-23T15:59:30;18.20;99.90
19449;DHT22;9863;49.404;8.246;2022-10-23T16:06:56;18.10;99.90
19449;DHT22;9863;49.404;8.246;2022-10-23T16:39:31;17.40;99.90
19449;DHT22;9863;49.404;8.246;2022-10-23T16:42:18;17.30;99.90
19449;DHT22;9863;49.404;8.246;2022-10-23T16:45:12;17.30;99.90
19449;DHT22;9863;49.404;8.246;2022-10-23T16:55:06;16.70;99.90
19449;DHT22;9863;49.404;8.246;2022-10-23T16:57:35;16.60;99.90
19449;DHT22;9863;49.404;8.246;2022-10-23T17:00:05;16.60;99.90
19449;DHT22;9863;49.404;8.246;2022-10-23T17:02:36;16.60;99.90
19449;DHT22;9863;49.404;8.246;2022-10-23T17:05:05;16.60;99.90
19449;DHT22;9863;49.404;8.246;2022-10-23T17:10:04;16.70;99.90
19449;DHT22;9863;49.404;8.246;2022-10-23T17:39:51;16.70;99.90
19449;DHT22;9863;49.404;8.246;2022-10-23T17:42:19;16.80;99.90
19449;DHT22;9863;49.404;8.246;2022-10-23T17:44:47;17.00;99.90
19449;DHT22;9863;49.404;8.246;2022-10-23T17:47:15;17.10;99.90
19449;DHT22;9863;49.404;8.246;2022-10-23T17:49:43;17.20;99.90
19449;DHT22;9863;49.404;8.246;2022-10-23T17:52:12;17.20;99.90
19449;DHT22;9863;49.404;8.246;2022-10-23T17:54:41;17.20;99.90
19449;DHT22;9863;49.404;8.246;2022-10-23T17:57:09;17.10;99.90
19449;DHT22;9863;49.404;8.246;2022-10-23T17:59:37;17.00;99.90
19449;DHT22;9863;49.404;8.246;2022-10-23T18:02:06;16.90;99.90
19449;DHT22;9863;49.404;8.246;2022-10-23T18:04:34;16.90;99.90
19449;DHT22;9863;49.404;8.246;2022-10-23T18:11:58;16.70;99.90
19449;DHT22;9863;49.404;8.246;2022-10-23T18:14:26;16.70;99.90
19449;DHT22;9863;49.404;8.246;2022-10-23T18:16:56;16.70;99.90
19449;DHT22;9863;49.404;8.246;2022-10-23T18:19:24;16.60;99.90
19449;DHT22;9863;49.404;8.246;2022-10-23T18:24:21;16.60;99.90
19449;DHT22;9863;49.404;8.246;2022-10-23T18:29:17;16.60;99.90
19449;DHT22;9863;49.404;8.246;2022-10-23T18:31:48;16.60;99.90
19449;DHT22;9863;49.404;8.246;2022-10-23T18:34:21;16.60;99.90
19449;DHT22;9863;49.404;8.246;2022-10-23T18:36:53;16.50;99.90
19449;DHT22;9863;49.404;8.246;2022-10-23T18:39:24;16.50;99.90
19449;DHT22;9863;49.404;8.246;2022-10-23T18:41:55;16.40;99.90
19449;DHT22;9863;49.404;8.246;2022-10-23T18:44:26;16.40;99.90
19449;DHT22;9863;49.404;8.246;2022-10-23T18:49:29;16.30;99.90
19449;DHT22;9863;49.404;8.246;2022-10-23T18:51:58;16.30;99.90
19449;DHT22;9863;49.404;8.246;2022-10-23T18:59:29;16.10;99.90
19449;DHT22;9863;49.404;8.246;2022-10-23T19:01:59;16.00;99.90
19449;DHT22;9863;49.404;8.246;2022-10-23T19:04:30;16.00;99.90
19449;DHT22;9863;49.404;8.246;2022-10-23T19:07:08;15.90;99.90
19449;DHT22;9863;49.404;8.246;2022-10-23T19:09:37;15.90;99.90
19449;DHT22;9863;49.404;8.246;2022-10-23T19:12:09;15.90;99.90
19449;DHT22;9863;49.404;8.246;2022-10-23T19:14:38;15.90;99.90
19449;DHT22;9863;49.404;8.246;2022-10-23T19:17:13;15.80;99.90
19449;DHT22;9863;49.404;8.246;2022-10-23T19:19:56;15.80;99.90
19449;DHT22;9863;49.404;8.246;2022-10-23T19:22:31;15.70;99.90
19449;DHT22;9863;49.404;8.246;2022-10-23T19:25:08;15.70;99.90
19449;DHT22;9863;49.404;8.246;2022-10-23T19:27:43;15.60;99.90
19449;DHT22;9863;49.404;8.246;2022-10-23T19:30:19;15.60;99.90
19449;DHT22;9863;49.404;8.246;2022-10-23T19:35:19;15.50;99.90
19449;DHT22;9863;49.404;8.246;2022-10-23T19:40:18;15.50;99.90
19449;DHT22;9863;49.404;8.246;2022-10-23T19:42:47;15.50;99.90
19449;DHT22;9863;49.404;8.246;2022-10-23T19:45:15;15.50;99.90
19449;DHT22;9863;49.404;8.246;2022-10-23T19:50:13;15.50;99.90
19449;DHT22;9863;49.404;8.246;2022-10-23T19:55:09;15.50;99.90
19449;DHT22;9863;49.404;8.246;2022-10-23T20:00:07;15.50;99.90
19449;DHT22;9863;49.404;8.246;2022-10-23T20:02:38;15.50;99.90
19449;DHT22;9863;49.404;8.246;2022-10-23T20:05:10;15.50;99.90
19449;DHT22;9863;49.404;8.246;2022-10-23T20:07:38;15.40;99.90
19449;DHT22;9863;49.404;8.246;2022-10-23T20:10:09;15.40;99.90
19449;DHT22;9863;49.404;8.246;2022-10-23T20:12:37;15.40;99.90
19449;DHT22;9863;49.404;8.246;2022-10-23T20:15:08;15.50;99.90
19449;DHT22;9863;49.404;8.246;2022-10-23T20:17:37;15.50;99.90
19449;DHT22;9863;49.404;8.246;2022-10-23T20:20:05;15.50;99.90
19449;DHT22;9863;49.404;8.246;2022-10-23T20:22:33;15.50;99.90
19449;DHT22;9863;49.404;8.246;2022-10-23T20:25:08;15.50;99.90
19449;DHT22;9863;49.404;8.246;2022-10-23T20:27:36;15.50;99.90
19449;DHT22;9863;49.404;8.246;2022-10-23T20:30:09;15.50;99.90
19449;DHT22;9863;49.404;8.246;2022-10-23T20:32:37;15.50;99.90
19449;DHT22;9863;49.404;8.246;2022-10-23T20:35:05;15.50;99.90
19449;DHT22;9863;49.404;8.246;2022-10-23T20:40:03;15.50;99.90
19449;DHT22;9863;49.404;8.246;2022-10-23T20:42:31;15.50;99.90
19449;DHT22;9863;49.404;8.246;2022-10-23T20:44:58;15.50;99.90
19449;DHT22;9863;49.404;8.246;2022-10-23T20:47:26;15.50;99.90
19449;DHT22;9863;49.404;8.246;2022-10-23T20:49:54;15.40;99.90
19449;DHT22;9863;49.404;8.246;2022-10-23T20:52:22;15.50;99.90
19449;DHT22;9863;49.404;8.246;2022-10-23T20:54:50;15.50;99.90
19449;DHT22;9863;49.404;8.246;2022-10-23T20:57:18;15.40;99.90
19449;DHT22;9863;49.404;8.246;2022-10-23T20:59:47;15.40;99.90
19449;DHT22;9863;49.404;8.246;2022-10-23T21:02:15;15.40;99.90
19449;DHT22;9863;49.404;8.246;2022-10-23T21:04:43;15.40;99.90
19449;DHT22;9863;49.404;8.246;2022-10-23T21:07:11;15.40;99.90
19449;DHT22;9863;49.404;8.246;2022-10-23T21:09:39;15.40;99.90
19449;DHT22;9863;49.404;8.246;2022-10-23T21:12:08;15.40;99.90
19449;DHT22;9863;49.404;8.246;2022-10-23T21:19:34;15.30;99.90
19449;DHT22;9863;49.404;8.246;2022-10-23T21:26:59;15.30;99.90
19449;DHT22;9863;49.404;8.246;2022-10-23T21:29:27;15.30;99.90
19449;DHT22;9863;49.404;8.246;2022-10-23T21:31:59;15.30;99.90
19449;DHT22;9863;49.404;8.246;2022-10-23T21:34:30;15.30;99.90
19449;DHT22;9863;49.404;8.246;2022-10-23T21:36:58;15.30;99.90
19449;DHT22;9863;49.404;8.246;2022-10-23T21:39:40;15.30;99.90
19449;DHT22;9863;49.404;8.246;2022-10-23T21:42:10;15.30;99.90
19449;DHT22;9863;49.404;8.246;2022-10-23T21:44:39;15.30;99.90
19449;DHT22;9863;49.404;8.246;2022-10-23T21:52:03;15.30;99.90
19449;DHT22;9863;49.404;8.246;2022-10-23T21:54:31;15.20;99.90
19449;DHT22;9863;49.404;8.246;2022-10-23T21:59:29;15.20;99.90
19449;DHT22;9863;49.404;8.246;2022-10-23T22:02:02;15.20;99.90
19449;DHT22;9863;49.404;8.246;2022-10-23T22:04:30;15.20;99.90
19449;DHT22;9863;49.404;8.246;2022-10-23T22:06:58;15.20;99.90
19449;DHT22;9863;49.404;8.246;2022-10-23T22:09:26;15.20;99.90
19449;DHT22;9863;49.404;8.246;2022-10-23T22:11:54;15.10;99.90
19449;DHT22;9863;49.404;8.246;2022-10-23T22:14:22;15.20;99.90
19449;DHT22;9863;49.404;8.246;2022-10-23T22:16:51;15.00;99.90
19449;DHT22;9863;49.404;8.246;2022-10-23T22:19:20;15.00;99.90
19449;DHT22;9863;49.404;8.246;2022-10-23T22:21:49;14.90;99.90
19449;DHT22;9863;49.404;8.246;2022-10-23T22:24:18;14.80;99.90
19449;DHT22;9863;49.404;8.246;2022-10-23T22:26:49;14.80;99.90
19449;DHT22;9863;49.404;8.246;2022-10-23T22:29:22;14.70;99.90
19449;DHT22;9863;49.404;8.246;2022-10-23T22:31:51;14.70;99.90
19449;DHT22;9863;49.404;8.246;2022-10-23T22:34:22;14.60;99.90
19449;DHT22;9863;49.404;8.246;2022-10-23T22:37:09;14.60;99.90
19449;DHT22;9863;49.404;8.246;2022-10-23T22:39:38;14.20;99.90
19449;DHT22;9863;49.404;8.246;2022-10-23T22:42:07;14.60;99.90
19449;DHT22;9863;49.404;8.246;2022-10-23T22:44:35;14.50;99.90
19449;DHT22;9863;49.404;8.246;2022-10-23T22:51:59;14.20;99.90
19449;DHT22;9863;49.404;8.246;2022-10-23T22:59:25;13.90;99.90
19449;DHT22;9863;49.404;8.246;2022-10-23T23:01:53;13.70;99.90
19449;DHT22;9863;49.404;8.246;2022-10-23T23:07:06;13.80;99.90
19449;DHT22;9863;49.404;8.246;2022-10-23T23:09:39;13.70;99.90
19449;DHT22;9863;49.404;8.246;2022-10-23T23:12:12;13.80;99.90
19449;DHT22;9863;49.404;8.246;2022-10-23T23:14:41;13.70;99.90
19449;DHT22;9863;49.404;8.246;2022-10-23T23:17:10;13.70;99.90
19449;DHT22;9863;49.404;8.246;2022-10-23T23:19:38;13.70;99.90
19449;DHT22;9863;49.404;8.246;2022-10-23T23:24:35;13.50;99.90
19449;DHT22;9863;49.404;8.246;2022-10-23T23:29:31;13.40;99.90
19449;DHT22;9863;49.404;8.246;2022-10-23T23:39:24;13.20;99.90
19449;DHT22;9863;49.404;8.246;2022-10-23T23:41:56;13.20;99.90
19449;DHT22;9863;49.404;8.246;2022-10-23T23:51:48;13.20;99.90
19449;DHT22;9863;49.404;8.246;2022-10-23T23:54:17;13.10;99.90
19449;DHT22;9863;49.404;8.246;2022-10-23T23:56:45;13.00;99.90
